sensor_id;sensor_type;location;lat;lon;timestamp;P1;durP1;ratioP1;P2;durP2;ratioP2
82926;SDS011;72788;40.218;44.486;2023-09-19T00:00:55;9.32;;;3.03;;
82926;SDS011;72788;40.218;44.486;2023-09-19T00:03:22;12.05;;;3.47;;
82926;SDS011;72788;40.218;44.486;2023-09-19T00:05:48;10.00;;;3.22;;
82926;SDS011;72788;40.218;44.486;2023-09-19T00:08:15;9.48;;;2.92;;
82926;SDS011;72788;40.218;44.486;2023-09-19T00:10:41;8.55;;;2.70;;
82926;SDS011;72788;40.218;44.486;2023-09-19T00:13:08;9.68;;;2.55;;
82926;SDS011;72788;40.218;44.486;2023-09-19T00:15:41;9.18;;;2.30;;
82926;SDS011;72788;40.218;44.486;2023-09-19T00:18:13;5.90;;;1.88;;
82926;SDS011;72788;40.218;44.486;2023-09-19T00:20:41;6.47;;;2.10;;
82926;SDS011;72788;40.218;44.486;2023-09-19T00:23:07;8.57;;;1.92;;
82926;SDS011;72788;40.218;44.486;2023-09-19T00:25:36;6.65;;;1.90;;
82926;SDS011;72788;40.218;44.486;2023-09-19T00:28:02;7.32;;;1.80;;
82926;SDS011;72788;40.218;44.486;2023-09-19T00:30:29;7.15;;;1.70;;
82926;SDS011;72788;40.218;44.486;2023-09-19T00:32:55;7.50;;;1.77;;
82926;SDS011;72788;40.218;44.486;2023-09-19T00:35:22;7.55;;;2.20;;
82926;SDS011;72788;40.218;44.486;2023-09-19T00:37:51;10.02;;;2.15;;
82926;SDS011;72788;40.218;44.486;2023-09-19T00:40:17;7.65;;;2.35;;
82926;SDS011;72788;40.218;44.486;2023-09-19T00:42:43;8.82;;;2.17;;
82926;SDS011;72788;40.218;44.486;2023-09-19T00:45:12;9.52;;;2.78;;
82926;SDS011;72788;40.218;44.486;2023-09-19T00:47:39;10.00;;;2.92;;
82926;SDS011;72788;40.218;44.486;2023-09-19T00:50:07;7.68;;;2.63;;
82926;SDS011;72788;40.218;44.486;2023-09-19T00:52:35;10.32;;;2.53;;
82926;SDS011;72788;40.218;44.486;2023-09-19T00:55:07;8.88;;;2.65;;
82926;SDS011;72788;40.218;44.486;2023-09-19T00:57:34;7.10;;;2.15;;
82926;SDS011;72788;40.218;44.486;2023-09-19T01:00:06;8.05;;;2.25;;
82926;SDS011;72788;40.218;44.486;2023-09-19T01:02:37;8.77;;;2.20;;
82926;SDS011;72788;40.218;44.486;2023-09-19T01:05:02;6.78;;;2.35;;
82926;SDS011;72788;40.218;44.486;2023-09-19T01:07:32;8.80;;;2.25;;
82926;SDS011;72788;40.218;44.486;2023-09-19T01:10:02;7.95;;;2.63;;
82926;SDS011;72788;40.218;44.486;2023-09-19T01:12:53;7.20;;;2.85;;
82926;SDS011;72788;40.218;44.486;2023-09-19T01:15:32;6.95;;;2.10;;
82926;SDS011;72788;40.218;44.486;2023-09-19T01:21:08;8.68;;;2.88;;
82926;SDS011;72788;40.218;44.486;2023-09-19T01:26:43;10.80;;;3.53;;
82926;SDS011;72788;40.218;44.486;2023-09-19T01:32:04;10.65;;;3.92;;
82926;SDS011;72788;40.218;44.486;2023-09-19T01:35:13;11.05;;;3.20;;
82926;SDS011;72788;40.218;44.486;2023-09-19T01:37:28;8.80;;;3.10;;
82926;SDS011;72788;40.218;44.486;2023-09-19T01:45:11;10.82;;;3.47;;
82926;SDS011;72788;40.218;44.486;2023-09-19T01:47:50;8.55;;;3.20;;
82926;SDS011;72788;40.218;44.486;2023-09-19T01:53:14;9.80;;;3.20;;
82926;SDS011;72788;40.218;44.486;2023-09-19T01:55:41;11.35;;;3.17;;
82926;SDS011;72788;40.218;44.486;2023-09-19T01:58:32;10.57;;;3.08;;
82926;SDS011;72788;40.218;44.486;2023-09-19T02:01:04;11.55;;;3.60;;
82926;SDS011;72788;40.218;44.486;2023-09-19T02:03:33;10.90;;;2.90;;
82926;SDS011;72788;40.218;44.486;2023-09-19T02:06:01;9.20;;;3.00;;
82926;SDS011;72788;40.218;44.486;2023-09-19T02:08:28;12.05;;;3.25;;
82926;SDS011;72788;40.218;44.486;2023-09-19T02:10:58;9.00;;;2.83;;
82926;SDS011;72788;40.218;44.486;2023-09-19T02:13:25;10.00;;;3.22;;
82926;SDS011;72788;40.218;44.486;2023-09-19T02:15:53;9.23;;;2.95;;
82926;SDS011;72788;40.218;44.486;2023-09-19T02:18:18;11.70;;;3.22;;
82926;SDS011;72788;40.218;44.486;2023-09-19T02:20:45;9.73;;;3.05;;
82926;SDS011;72788;40.218;44.486;2023-09-19T02:23:11;9.63;;;3.30;;
82926;SDS011;72788;40.218;44.486;2023-09-19T02:25:38;10.48;;;2.83;;
82926;SDS011;72788;40.218;44.486;2023-09-19T02:28:05;11.13;;;3.58;;
82926;SDS011;72788;40.218;44.486;2023-09-19T02:30:31;10.63;;;3.42;;
82926;SDS011;72788;40.218;44.486;2023-09-19T02:32:58;10.60;;;3.50;;
82926;SDS011;72788;40.218;44.486;2023-09-19T02:35:27;13.70;;;3.70;;
82926;SDS011;72788;40.218;44.486;2023-09-19T02:37:53;11.13;;;3.33;;
82926;SDS011;72788;40.218;44.486;2023-09-19T02:40:18;15.48;;;3.55;;
82926;SDS011;72788;40.218;44.486;2023-09-19T02:42:45;11.88;;;3.30;;
82926;SDS011;72788;40.218;44.486;2023-09-19T02:45:12;12.15;;;2.85;;
82926;SDS011;72788;40.218;44.486;2023-09-19T02:47:39;11.07;;;2.85;;
82926;SDS011;72788;40.218;44.486;2023-09-19T02:50:05;9.88;;;2.90;;
82926;SDS011;72788;40.218;44.486;2023-09-19T02:52:31;10.65;;;2.60;;
82926;SDS011;72788;40.218;44.486;2023-09-19T02:54:57;10.60;;;2.53;;
82926;SDS011;72788;40.218;44.486;2023-09-19T02:57:22;9.82;;;2.33;;
82926;SDS011;72788;40.218;44.486;2023-09-19T02:59:49;6.38;;;1.83;;
82926;SDS011;72788;40.218;44.486;2023-09-19T03:02:15;7.50;;;1.80;;
82926;SDS011;72788;40.218;44.486;2023-09-19T03:04:41;7.28;;;1.90;;
82926;SDS011;72788;40.218;44.486;2023-09-19T03:07:06;6.72;;;1.88;;
82926;SDS011;72788;40.218;44.486;2023-09-19T03:09:32;6.45;;;1.60;;
82926;SDS011;72788;40.218;44.486;2023-09-19T03:11:58;7.80;;;1.83;;
82926;SDS011;72788;40.218;44.486;2023-09-19T03:14:24;6.53;;;1.70;;
82926;SDS011;72788;40.218;44.486;2023-09-19T03:16:50;6.68;;;1.77;;
82926;SDS011;72788;40.218;44.486;2023-09-19T03:19:17;8.77;;;1.83;;
82926;SDS011;72788;40.218;44.486;2023-09-19T03:21:45;7.18;;;1.90;;
82926;SDS011;72788;40.218;44.486;2023-09-19T03:24:14;5.60;;;1.65;;
82926;SDS011;72788;40.218;44.486;2023-09-19T03:26:40;8.80;;;2.42;;
82926;SDS011;72788;40.218;44.486;2023-09-19T03:29:05;12.20;;;2.58;;
82926;SDS011;72788;40.218;44.486;2023-09-19T03:31:32;11.55;;;2.72;;
82926;SDS011;72788;40.218;44.486;2023-09-19T03:33:57;8.02;;;2.55;;
82926;SDS011;72788;40.218;44.486;2023-09-19T03:36:23;8.45;;;2.47;;
82926;SDS011;72788;40.218;44.486;2023-09-19T03:38:49;8.80;;;2.50;;
82926;SDS011;72788;40.218;44.486;2023-09-19T03:41:14;7.40;;;2.47;;
82926;SDS011;72788;40.218;44.486;2023-09-19T03:43:42;9.82;;;2.80;;
82926;SDS011;72788;40.218;44.486;2023-09-19T03:46:08;10.65;;;2.53;;
82926;SDS011;72788;40.218;44.486;2023-09-19T03:48:33;7.63;;;2.40;;
82926;SDS011;72788;40.218;44.486;2023-09-19T03:50:59;12.00;;;2.90;;
82926;SDS011;72788;40.218;44.486;2023-09-19T03:53:24;10.10;;;2.47;;
82926;SDS011;72788;40.218;44.486;2023-09-19T03:55:50;7.50;;;2.47;;
82926;SDS011;72788;40.218;44.486;2023-09-19T03:58:16;16.00;;;2.67;;
82926;SDS011;72788;40.218;44.486;2023-09-19T04:00:41;7.05;;;2.10;;
82926;SDS011;72788;40.218;44.486;2023-09-19T04:03:07;7.60;;;2.15;;
82926;SDS011;72788;40.218;44.486;2023-09-19T04:05:33;8.75;;;2.13;;
82926;SDS011;72788;40.218;44.486;2023-09-19T04:07:58;9.43;;;2.40;;
82926;SDS011;72788;40.218;44.486;2023-09-19T04:10:24;8.75;;;2.13;;
82926;SDS011;72788;40.218;44.486;2023-09-19T04:12:53;6.68;;;2.25;;
82926;SDS011;72788;40.218;44.486;2023-09-19T04:15:20;8.48;;;2.55;;
82926;SDS011;72788;40.218;44.486;2023-09-19T04:17:48;8.43;;;2.58;;
82926;SDS011;72788;40.218;44.486;2023-09-19T04:20:14;8.50;;;1.98;;
82926;SDS011;72788;40.218;44.486;2023-09-19T04:22:41;9.82;;;2.30;;
82926;SDS011;72788;40.218;44.486;2023-09-19T04:25:06;7.65;;;2.40;;
82926;SDS011;72788;40.218;44.486;2023-09-19T04:27:32;7.68;;;2.22;;
82926;SDS011;72788;40.218;44.486;2023-09-19T04:29:58;8.13;;;2.53;;
82926;SDS011;72788;40.218;44.486;2023-09-19T04:32:28;7.75;;;2.78;;
82926;SDS011;72788;40.218;44.486;2023-09-19T04:34:54;9.35;;;2.58;;
82926;SDS011;72788;40.218;44.486;2023-09-19T04:37:24;7.57;;;2.80;;
82926;SDS011;72788;40.218;44.486;2023-09-19T04:39:50;9.15;;;2.70;;
82926;SDS011;72788;40.218;44.486;2023-09-19T04:42:16;10.07;;;2.70;;
82926;SDS011;72788;40.218;44.486;2023-09-19T04:44:42;13.68;;;2.83;;
82926;SDS011;72788;40.218;44.486;2023-09-19T04:47:08;10.93;;;2.75;;
82926;SDS011;72788;40.218;44.486;2023-09-19T04:49:34;6.97;;;2.30;;
82926;SDS011;72788;40.218;44.486;2023-09-19T04:52:00;9.18;;;2.83;;
82926;SDS011;72788;40.218;44.486;2023-09-19T04:54:26;12.60;;;2.97;;
82926;SDS011;72788;40.218;44.486;2023-09-19T04:56:52;9.38;;;3.00;;
82926;SDS011;72788;40.218;44.486;2023-09-19T04:59:18;11.65;;;2.70;;
82926;SDS011;72788;40.218;44.486;2023-09-19T05:01:43;9.45;;;3.75;;
82926;SDS011;72788;40.218;44.486;2023-09-19T05:04:09;13.52;;;3.63;;
82926;SDS011;72788;40.218;44.486;2023-09-19T05:06:34;10.95;;;3.28;;
82926;SDS011;72788;40.218;44.486;2023-09-19T05:09:00;15.38;;;3.33;;
82926;SDS011;72788;40.218;44.486;2023-09-19T05:11:30;11.18;;;2.92;;
82926;SDS011;72788;40.218;44.486;2023-09-19T05:13:55;13.05;;;2.90;;
82926;SDS011;72788;40.218;44.486;2023-09-19T05:16:21;9.40;;;3.25;;
82926;SDS011;72788;40.218;44.486;2023-09-19T05:18:47;10.30;;;2.83;;
82926;SDS011;72788;40.218;44.486;2023-09-19T05:21:12;13.88;;;3.70;;
82926;SDS011;72788;40.218;44.486;2023-09-19T05:23:38;13.20;;;2.30;;
82926;SDS011;72788;40.218;44.486;2023-09-19T05:26:04;12.05;;;2.67;;
82926;SDS011;72788;40.218;44.486;2023-09-19T05:28:30;9.15;;;2.40;;
82926;SDS011;72788;40.218;44.486;2023-09-19T05:30:59;10.60;;;2.90;;
82926;SDS011;72788;40.218;44.486;2023-09-19T05:33:27;9.93;;;2.65;;
82926;SDS011;72788;40.218;44.486;2023-09-19T05:35:52;13.93;;;3.38;;
82926;SDS011;72788;40.218;44.486;2023-09-19T05:38:19;14.13;;;3.65;;
82926;SDS011;72788;40.218;44.486;2023-09-19T05:40:45;9.25;;;3.65;;
82926;SDS011;72788;40.218;44.486;2023-09-19T05:43:11;12.82;;;3.70;;
82926;SDS011;72788;40.218;44.486;2023-09-19T05:45:39;13.23;;;3.85;;
82926;SDS011;72788;40.218;44.486;2023-09-19T05:50:41;11.85;;;3.92;;
82926;SDS011;72788;40.218;44.486;2023-09-19T05:53:08;14.52;;;4.43;;
82926;SDS011;72788;40.218;44.486;2023-09-19T05:55:37;12.48;;;3.60;;
82926;SDS011;72788;40.218;44.486;2023-09-19T05:58:02;18.85;;;4.65;;
82926;SDS011;72788;40.218;44.486;2023-09-19T06:00:28;14.85;;;3.83;;
82926;SDS011;72788;40.218;44.486;2023-09-19T06:02:57;16.10;;;3.85;;
82926;SDS011;72788;40.218;44.486;2023-09-19T06:05:24;10.85;;;3.88;;
82926;SDS011;72788;40.218;44.486;2023-09-19T06:07:52;14.20;;;4.55;;
82926;SDS011;72788;40.218;44.486;2023-09-19T06:10:18;13.85;;;4.20;;
82926;SDS011;72788;40.218;44.486;2023-09-19T06:12:46;14.68;;;3.70;;
82926;SDS011;72788;40.218;44.486;2023-09-19T06:15:13;10.77;;;4.13;;
82926;SDS011;72788;40.218;44.486;2023-09-19T06:17:53;14.00;;;3.80;;
82926;SDS011;72788;40.218;44.486;2023-09-19T06:20:21;13.93;;;3.40;;
82926;SDS011;72788;40.218;44.486;2023-09-19T06:22:48;19.23;;;7.18;;
82926;SDS011;72788;40.218;44.486;2023-09-19T06:25:14;19.88;;;6.10;;
82926;SDS011;72788;40.218;44.486;2023-09-19T06:27:44;17.92;;;5.05;;
82926;SDS011;72788;40.218;44.486;2023-09-19T06:30:11;11.48;;;3.70;;
82926;SDS011;72788;40.218;44.486;2023-09-19T06:32:38;18.25;;;4.07;;
82926;SDS011;72788;40.218;44.486;2023-09-19T06:35:04;14.77;;;3.70;;
82926;SDS011;72788;40.218;44.486;2023-09-19T06:37:33;17.15;;;4.22;;
82926;SDS011;72788;40.218;44.486;2023-09-19T06:40:05;13.50;;;4.57;;
82926;SDS011;72788;40.218;44.486;2023-09-19T06:42:32;14.18;;;4.50;;
82926;SDS011;72788;40.218;44.486;2023-09-19T06:44:58;19.63;;;3.33;;
82926;SDS011;72788;40.218;44.486;2023-09-19T06:47:23;13.85;;;4.60;;
82926;SDS011;72788;40.218;44.486;2023-09-19T06:49:51;16.70;;;3.15;;
82926;SDS011;72788;40.218;44.486;2023-09-19T06:52:17;13.15;;;3.90;;
82926;SDS011;72788;40.218;44.486;2023-09-19T06:54:47;12.15;;;3.80;;
82926;SDS011;72788;40.218;44.486;2023-09-19T06:57:15;20.30;;;3.65;;
82926;SDS011;72788;40.218;44.486;2023-09-19T06:59:41;19.08;;;3.97;;
82926;SDS011;72788;40.218;44.486;2023-09-19T07:02:07;11.43;;;3.35;;
82926;SDS011;72788;40.218;44.486;2023-09-19T07:04:33;10.90;;;3.20;;
82926;SDS011;72788;40.218;44.486;2023-09-19T07:06:59;10.82;;;3.42;;
82926;SDS011;72788;40.218;44.486;2023-09-19T07:09:24;10.10;;;3.38;;
82926;SDS011;72788;40.218;44.486;2023-09-19T07:11:52;14.07;;;3.03;;
82926;SDS011;72788;40.218;44.486;2023-09-19T07:14:18;14.30;;;3.40;;
82926;SDS011;72788;40.218;44.486;2023-09-19T07:16:44;13.43;;;3.67;;
82926;SDS011;72788;40.218;44.486;2023-09-19T07:19:10;12.38;;;3.67;;
82926;SDS011;72788;40.218;44.486;2023-09-19T07:21:36;9.05;;;3.10;;
82926;SDS011;72788;40.218;44.486;2023-09-19T07:24:03;11.05;;;3.20;;
82926;SDS011;72788;40.218;44.486;2023-09-19T07:26:29;19.50;;;2.47;;
82926;SDS011;72788;40.218;44.486;2023-09-19T07:28:56;8.48;;;2.58;;
82926;SDS011;72788;40.218;44.486;2023-09-19T07:31:22;10.85;;;2.40;;
82926;SDS011;72788;40.218;44.486;2023-09-19T07:33:50;14.05;;;3.42;;
82926;SDS011;72788;40.218;44.486;2023-09-19T07:36:16;8.52;;;2.47;;
82926;SDS011;72788;40.218;44.486;2023-09-19T07:38:41;7.45;;;2.55;;
82926;SDS011;72788;40.218;44.486;2023-09-19T07:41:07;8.20;;;2.10;;
82926;SDS011;72788;40.218;44.486;2023-09-19T07:43:36;6.57;;;2.42;;
82926;SDS011;72788;40.218;44.486;2023-09-19T07:46:04;9.13;;;2.72;;
82926;SDS011;72788;40.218;44.486;2023-09-19T07:48:32;13.63;;;3.88;;
82926;SDS011;72788;40.218;44.486;2023-09-19T07:51:05;12.73;;;2.85;;
82926;SDS011;72788;40.218;44.486;2023-09-19T07:53:35;8.00;;;2.22;;
82926;SDS011;72788;40.218;44.486;2023-09-19T07:56:02;8.70;;;2.83;;
82926;SDS011;72788;40.218;44.486;2023-09-19T07:58:32;7.60;;;2.00;;
82926;SDS011;72788;40.218;44.486;2023-09-19T08:01:08;11.05;;;2.58;;
82926;SDS011;72788;40.218;44.486;2023-09-19T08:03:35;10.23;;;2.33;;
82926;SDS011;72788;40.218;44.486;2023-09-19T08:06:10;8.55;;;2.17;;
82926;SDS011;72788;40.218;44.486;2023-09-19T08:08:37;7.85;;;2.60;;
82926;SDS011;72788;40.218;44.486;2023-09-19T08:11:03;11.18;;;2.35;;
82926;SDS011;72788;40.218;44.486;2023-09-19T08:13:36;8.57;;;2.28;;
82926;SDS011;72788;40.218;44.486;2023-09-19T08:16:03;8.48;;;2.97;;
82926;SDS011;72788;40.218;44.486;2023-09-19T08:18:30;9.30;;;2.63;;
82926;SDS011;72788;40.218;44.486;2023-09-19T08:20:55;11.25;;;3.53;;
82926;SDS011;72788;40.218;44.486;2023-09-19T08:23:23;6.47;;;2.10;;
82926;SDS011;72788;40.218;44.486;2023-09-19T08:25:49;9.75;;;2.28;;
82926;SDS011;72788;40.218;44.486;2023-09-19T08:28:15;11.40;;;2.35;;
82926;SDS011;72788;40.218;44.486;2023-09-19T08:30:47;8.55;;;2.67;;
82926;SDS011;72788;40.218;44.486;2023-09-19T08:33:13;9.18;;;2.42;;
82926;SDS011;72788;40.218;44.486;2023-09-19T08:35:40;9.07;;;2.20;;
82926;SDS011;72788;40.218;44.486;2023-09-19T08:38:09;13.30;;;4.97;;
82926;SDS011;72788;40.218;44.486;2023-09-19T08:40:37;12.05;;;3.10;;
82926;SDS011;72788;40.218;44.486;2023-09-19T08:43:05;8.55;;;2.85;;
82926;SDS011;72788;40.218;44.486;2023-09-19T08:45:32;12.18;;;3.03;;
82926;SDS011;72788;40.218;44.486;2023-09-19T08:50:52;11.00;;;2.80;;
82926;SDS011;72788;40.218;44.486;2023-09-19T08:56:16;9.02;;;2.53;;
82926;SDS011;72788;40.218;44.486;2023-09-19T08:58:57;10.50;;;2.60;;
82926;SDS011;72788;40.218;44.486;2023-09-19T09:01:27;7.43;;;2.22;;
82926;SDS011;72788;40.218;44.486;2023-09-19T09:03:54;8.65;;;2.47;;
82926;SDS011;72788;40.218;44.486;2023-09-19T09:06:22;9.35;;;2.58;;
82926;SDS011;72788;40.218;44.486;2023-09-19T09:08:52;10.77;;;2.50;;
82926;SDS011;72788;40.218;44.486;2023-09-19T09:11:18;9.38;;;2.58;;
82926;SDS011;72788;40.218;44.486;2023-09-19T09:13:45;15.50;;;3.03;;
82926;SDS011;72788;40.218;44.486;2023-09-19T09:16:12;7.88;;;2.70;;
82926;SDS011;72788;40.218;44.486;2023-09-19T09:18:38;11.27;;;3.03;;
82926;SDS011;72788;40.218;44.486;2023-09-19T09:21:05;9.20;;;2.30;;
82926;SDS011;72788;40.218;44.486;2023-09-19T09:23:31;8.63;;;2.42;;
82926;SDS011;72788;40.218;44.486;2023-09-19T09:25:57;8.82;;;2.45;;
82926;SDS011;72788;40.218;44.486;2023-09-19T09:30:54;9.20;;;2.60;;
82926;SDS011;72788;40.218;44.486;2023-09-19T09:33:20;7.93;;;2.65;;
82926;SDS011;72788;40.218;44.486;2023-09-19T09:35:56;8.30;;;2.50;;
82926;SDS011;72788;40.218;44.486;2023-09-19T09:38:30;14.27;;;2.90;;
82926;SDS011;72788;40.218;44.486;2023-09-19T09:41:09;12.20;;;2.70;;
82926;SDS011;72788;40.218;44.486;2023-09-19T09:43:35;11.90;;;3.20;;
82926;SDS011;72788;40.218;44.486;2023-09-19T09:46:16;8.88;;;2.88;;
82926;SDS011;72788;40.218;44.486;2023-09-19T09:51:38;13.10;;;2.80;;
82926;SDS011;72788;40.218;44.486;2023-09-19T09:54:11;11.23;;;3.10;;
82926;SDS011;72788;40.218;44.486;2023-09-19T09:56:53;11.68;;;2.88;;
82926;SDS011;72788;40.218;44.486;2023-09-19T09:59:39;7.15;;;2.30;;
82926;SDS011;72788;40.218;44.486;2023-09-19T10:02:12;8.07;;;2.42;;
82926;SDS011;72788;40.218;44.486;2023-09-19T10:04:54;8.38;;;2.60;;
82926;SDS011;72788;40.218;44.486;2023-09-19T10:07:41;10.13;;;2.45;;
82926;SDS011;72788;40.218;44.486;2023-09-19T10:10:14;7.70;;;2.50;;
82926;SDS011;72788;40.218;44.486;2023-09-19T10:12:50;8.50;;;2.42;;
82926;SDS011;72788;40.218;44.486;2023-09-19T10:15:28;8.65;;;2.70;;
82926;SDS011;72788;40.218;44.486;2023-09-19T10:17:57;9.30;;;2.83;;
82926;SDS011;72788;40.218;44.486;2023-09-19T10:20:26;13.55;;;2.75;;
82926;SDS011;72788;40.218;44.486;2023-09-19T10:23:05;8.68;;;2.60;;
82926;SDS011;72788;40.218;44.486;2023-09-19T10:25:41;7.63;;;2.17;;
82926;SDS011;72788;40.218;44.486;2023-09-19T10:28:12;10.20;;;2.25;;
82926;SDS011;72788;40.218;44.486;2023-09-19T10:30:45;9.82;;;2.72;;
82926;SDS011;72788;40.218;44.486;2023-09-19T10:33:34;9.18;;;2.05;;
82926;SDS011;72788;40.218;44.486;2023-09-19T10:36:01;8.55;;;2.08;;
82926;SDS011;72788;40.218;44.486;2023-09-19T10:38:30;9.77;;;2.40;;
82926;SDS011;72788;40.218;44.486;2023-09-19T10:40:58;7.28;;;2.47;;
82926;SDS011;72788;40.218;44.486;2023-09-19T10:43:28;11.10;;;2.40;;
82926;SDS011;72788;40.218;44.486;2023-09-19T10:45:57;10.73;;;2.47;;
82926;SDS011;72788;40.218;44.486;2023-09-19T10:48:29;8.52;;;2.13;;
82926;SDS011;72788;40.218;44.486;2023-09-19T10:56:26;8.80;;;2.53;;
82926;SDS011;72788;40.218;44.486;2023-09-19T11:04:43;8.00;;;2.40;;
82926;SDS011;72788;40.218;44.486;2023-09-19T11:07:11;10.00;;;2.35;;
82926;SDS011;72788;40.218;44.486;2023-09-19T11:15:11;8.77;;;2.63;;
82926;SDS011;72788;40.218;44.486;2023-09-19T11:26:49;8.25;;;2.63;;
82926;SDS011;72788;40.218;44.486;2023-09-19T11:29:24;11.55;;;2.78;;
82926;SDS011;72788;40.218;44.486;2023-09-19T11:31:57;10.63;;;2.38;;
82926;SDS011;72788;40.218;44.486;2023-09-19T11:34:45;8.77;;;2.55;;
82926;SDS011;72788;40.218;44.486;2023-09-19T11:39:39;8.43;;;2.38;;
82926;SDS011;72788;40.218;44.486;2023-09-19T11:48:20;13.48;;;2.72;;
82926;SDS011;72788;40.218;44.486;2023-09-19T11:50:50;9.50;;;2.55;;
82926;SDS011;72788;40.218;44.486;2023-09-19T11:53:16;10.23;;;2.30;;
82926;SDS011;72788;40.218;44.486;2023-09-19T11:55:45;8.63;;;2.35;;
82926;SDS011;72788;40.218;44.486;2023-09-19T11:58:17;11.38;;;2.88;;
82926;SDS011;72788;40.218;44.486;2023-09-19T12:00:45;8.57;;;2.53;;
82926;SDS011;72788;40.218;44.486;2023-09-19T12:03:11;7.97;;;2.33;;
82926;SDS011;72788;40.218;44.486;2023-09-19T12:05:39;8.65;;;2.80;;
82926;SDS011;72788;40.218;44.486;2023-09-19T12:08:05;10.18;;;2.40;;
82926;SDS011;72788;40.218;44.486;2023-09-19T12:10:54;10.05;;;3.25;;
82926;SDS011;72788;40.218;44.486;2023-09-19T12:13:23;8.75;;;2.15;;
82926;SDS011;72788;40.218;44.486;2023-09-19T12:15:48;8.23;;;2.85;;
82926;SDS011;72788;40.218;44.486;2023-09-19T12:18:29;11.30;;;2.40;;
82926;SDS011;72788;40.218;44.486;2023-09-19T12:20:55;11.35;;;2.45;;
82926;SDS011;72788;40.218;44.486;2023-09-19T12:23:23;10.77;;;2.40;;
82926;SDS011;72788;40.218;44.486;2023-09-19T12:25:51;11.48;;;2.60;;
82926;SDS011;72788;40.218;44.486;2023-09-19T12:28:19;15.10;;;2.88;;
82926;SDS011;72788;40.218;44.486;2023-09-19T12:30:48;12.63;;;2.28;;
82926;SDS011;72788;40.218;44.486;2023-09-19T12:33:17;8.82;;;1.90;;
82926;SDS011;72788;40.218;44.486;2023-09-19T12:35:50;9.13;;;2.40;;
82926;SDS011;72788;40.218;44.486;2023-09-19T12:38:25;8.20;;;2.10;;
82926;SDS011;72788;40.218;44.486;2023-09-19T12:40:54;7.97;;;2.55;;
82926;SDS011;72788;40.218;44.486;2023-09-19T12:43:21;8.10;;;2.00;;
82926;SDS011;72788;40.218;44.486;2023-09-19T12:45:47;15.30;;;2.20;;
82926;SDS011;72788;40.218;44.486;2023-09-19T12:48:20;8.50;;;2.30;;
82926;SDS011;72788;40.218;44.486;2023-09-19T12:51:10;8.05;;;2.70;;
82926;SDS011;72788;40.218;44.486;2023-09-19T12:53:44;7.90;;;2.50;;
82926;SDS011;72788;40.218;44.486;2023-09-19T12:56:16;12.10;;;2.75;;
82926;SDS011;72788;40.218;44.486;2023-09-19T12:58:50;11.23;;;2.60;;
82926;SDS011;72788;40.218;44.486;2023-09-19T13:01:19;7.80;;;3.22;;
82926;SDS011;72788;40.218;44.486;2023-09-19T13:04:09;13.02;;;2.65;;
82926;SDS011;72788;40.218;44.486;2023-09-19T13:06:47;8.57;;;2.35;;
82926;SDS011;72788;40.218;44.486;2023-09-19T13:09:15;9.98;;;2.63;;
82926;SDS011;72788;40.218;44.486;2023-09-19T13:11:45;10.65;;;2.45;;
82926;SDS011;72788;40.218;44.486;2023-09-19T13:14:20;10.52;;;2.78;;
82926;SDS011;72788;40.218;44.486;2023-09-19T13:17:00;10.90;;;2.70;;
82926;SDS011;72788;40.218;44.486;2023-09-19T13:19:44;15.27;;;2.85;;
82926;SDS011;72788;40.218;44.486;2023-09-19T13:25:13;15.98;;;3.00;;
82926;SDS011;72788;40.218;44.486;2023-09-19T13:27:44;10.25;;;2.70;;
82926;SDS011;72788;40.218;44.486;2023-09-19T13:30:11;10.38;;;2.78;;
82926;SDS011;72788;40.218;44.486;2023-09-19T13:32:37;13.07;;;2.47;;
82926;SDS011;72788;40.218;44.486;2023-09-19T13:35:05;10.52;;;3.05;;
82926;SDS011;72788;40.218;44.486;2023-09-19T13:37:35;14.68;;;3.15;;
82926;SDS011;72788;40.218;44.486;2023-09-19T13:40:09;14.38;;;3.08;;
82926;SDS011;72788;40.218;44.486;2023-09-19T13:42:36;9.27;;;2.80;;
82926;SDS011;72788;40.218;44.486;2023-09-19T13:45:02;9.52;;;2.80;;
82926;SDS011;72788;40.218;44.486;2023-09-19T13:47:29;10.73;;;2.90;;
82926;SDS011;72788;40.218;44.486;2023-09-19T13:49:59;7.88;;;2.50;;
82926;SDS011;72788;40.218;44.486;2023-09-19T13:52:25;12.35;;;2.38;;
82926;SDS011;72788;40.218;44.486;2023-09-19T13:54:53;8.52;;;2.58;;
82926;SDS011;72788;40.218;44.486;2023-09-19T13:57:22;13.00;;;2.30;;
82926;SDS011;72788;40.218;44.486;2023-09-19T13:59:48;9.35;;;2.42;;
82926;SDS011;72788;40.218;44.486;2023-09-19T14:02:13;8.85;;;2.15;;
82926;SDS011;72788;40.218;44.486;2023-09-19T14:04:39;14.30;;;4.05;;
82926;SDS011;72788;40.218;44.486;2023-09-19T14:07:06;13.25;;;2.90;;
82926;SDS011;72788;40.218;44.486;2023-09-19T14:09:32;17.33;;;3.45;;
82926;SDS011;72788;40.218;44.486;2023-09-19T14:11:59;16.55;;;4.32;;
82926;SDS011;72788;40.218;44.486;2023-09-19T14:14:24;13.95;;;3.47;;
82926;SDS011;72788;40.218;44.486;2023-09-19T14:16:50;15.98;;;3.53;;
82926;SDS011;72788;40.218;44.486;2023-09-19T14:19:17;17.20;;;3.92;;
82926;SDS011;72788;40.218;44.486;2023-09-19T14:21:43;13.80;;;3.58;;
82926;SDS011;72788;40.218;44.486;2023-09-19T14:24:09;12.63;;;3.47;;
82926;SDS011;72788;40.218;44.486;2023-09-19T14:26:38;15.10;;;3.17;;
82926;SDS011;72788;40.218;44.486;2023-09-19T14:29:04;14.32;;;3.00;;
82926;SDS011;72788;40.218;44.486;2023-09-19T14:31:32;13.20;;;3.20;;
82926;SDS011;72788;40.218;44.486;2023-09-19T14:33:59;14.55;;;3.10;;
82926;SDS011;72788;40.218;44.486;2023-09-19T14:36:25;14.70;;;2.70;;
82926;SDS011;72788;40.218;44.486;2023-09-19T14:38:55;15.20;;;2.78;;
82926;SDS011;72788;40.218;44.486;2023-09-19T14:41:21;13.82;;;3.08;;
82926;SDS011;72788;40.218;44.486;2023-09-19T14:43:48;18.23;;;3.30;;
82926;SDS011;72788;40.218;44.486;2023-09-19T14:46:14;16.77;;;2.60;;
82926;SDS011;72788;40.218;44.486;2023-09-19T14:48:41;17.23;;;2.60;;
82926;SDS011;72788;40.218;44.486;2023-09-19T14:51:07;19.48;;;3.45;;
82926;SDS011;72788;40.218;44.486;2023-09-19T14:53:37;19.40;;;2.92;;
82926;SDS011;72788;40.218;44.486;2023-09-19T14:56:03;14.05;;;2.80;;
82926;SDS011;72788;40.218;44.486;2023-09-19T14:58:30;14.48;;;3.08;;
82926;SDS011;72788;40.218;44.486;2023-09-19T15:01:06;12.50;;;3.00;;
82926;SDS011;72788;40.218;44.486;2023-09-19T15:08:32;19.23;;;2.90;;
82926;SDS011;72788;40.218;44.486;2023-09-19T15:11:12;13.50;;;3.10;;
82926;SDS011;72788;40.218;44.486;2023-09-19T15:13:45;12.95;;;3.10;;
82926;SDS011;72788;40.218;44.486;2023-09-19T15:16:12;21.75;;;2.80;;
82926;SDS011;72788;40.218;44.486;2023-09-19T15:18:42;12.82;;;3.28;;
82926;SDS011;72788;40.218;44.486;2023-09-19T15:21:10;13.82;;;3.17;;
82926;SDS011;72788;40.218;44.486;2023-09-19T15:23:37;9.05;;;2.90;;
82926;SDS011;72788;40.218;44.486;2023-09-19T15:26:05;11.75;;;3.10;;
82926;SDS011;72788;40.218;44.486;2023-09-19T15:28:32;12.77;;;2.80;;
82926;SDS011;72788;40.218;44.486;2023-09-19T15:31:03;13.20;;;3.58;;
82926;SDS011;72788;40.218;44.486;2023-09-19T15:33:30;13.77;;;3.60;;
82926;SDS011;72788;40.218;44.486;2023-09-19T15:36:10;18.40;;;3.90;;
82926;SDS011;72788;40.218;44.486;2023-09-19T15:38:56;14.18;;;3.15;;
82926;SDS011;72788;40.218;44.486;2023-09-19T15:43:57;18.25;;;3.05;;
82926;SDS011;72788;40.218;44.486;2023-09-19T15:46:30;16.33;;;3.22;;
82926;SDS011;72788;40.218;44.486;2023-09-19T15:49:00;16.52;;;3.70;;
82926;SDS011;72788;40.218;44.486;2023-09-19T15:51:26;17.45;;;4.03;;
82926;SDS011;72788;40.218;44.486;2023-09-19T15:53:53;16.67;;;3.53;;